Time;durP1;ratioP1;P1;durP2;ratioP2;P2;SDS_P1;SDS_P2;PMS_P1;PMS_P2;Temp;Humidity;BMP_temperature;BMP_pressure;BME280_temperature;BME280_humidity;BME280_pressure;Samples;Min_cycle;Max_cycle;Signal;HPM_P1;HPM_P2
2022/06/04 00:02:05;;;;;;;12.65;10.52;;;563.80;2432.00;;;;;;5116967;28;20051;-74
2022/06/04 00:04:31;;;;;;;15.07;11.15;;;563.90;2432.00;;;;;;5116007;28;20081;-75
2022/06/04 00:06:57;;;;;;;14.13;11.88;;;563.80;2432.00;;;;;;5116037;28;20163;-75
2022/06/04 00:09:25;;;;;;;15.50;10.95;;;563.60;2432.00;;;;;;5117485;28;20483;-75
2022/06/04 00:17:25;;;;;;;14.05;10.98;;;563.50;2432.00;;;;;;5106455;28;20039;-76
2022/06/04 00:19:51;;;;;;;12.13;10.85;;;563.60;2432.00;;;;;;5116008;27;20485;-75
2022/06/04 00:22:18;;;;;;;15.05;12.75;;;564.00;2432.00;;;;;;5115672;28;20024;-76
2022/06/04 00:24:44;;;;;;;13.15;11.25;;;563.60;2432.00;;;;;;5117167;28;20020;-75
2022/06/04 00:27:16;;;;;;;13.05;11.15;;;563.70;2432.00;;;;;;5116751;28;20372;-75
2022/06/04 00:29:42;;;;;;;13.98;11.07;;;563.60;2432.00;;;;;;5115582;28;20027;-76
2022/06/04 00:32:08;;;;;;;12.63;11.32;;;563.50;2432.00;;;;;;5116890;28;20096;-76
2022/06/04 00:34:34;;;;;;;14.63;10.90;;;563.30;2432.00;;;;;;5115740;28;20055;-73
2022/06/04 00:36:59;;;;;;;14.13;12.13;;;563.30;2432.00;;;;;;5115452;28;20034;-75
2022/06/04 00:39:25;;;;;;;13.75;11.18;;;538.50;2406.40;;;;;;5115640;28;20023;-74
2022/06/04 00:41:57;;;;;;;16.63;11.25;;;538.40;2406.40;;;;;;5115277;28;20047;-74
2022/06/04 00:44:32;;;;;;;12.63;11.32;;;538.50;2406.40;;;;;;5115546;28;20020;-73
2022/06/04 00:47:10;;;;;;;14.27;11.18;;;538.50;2406.40;;;;;;5115430;28;20360;-75
2022/06/04 00:49:37;;;;;;;13.40;11.38;;;538.50;2406.40;;;;;;5114818;28;20024;-76
2022/06/04 00:52:09;;;;;;;13.02;11.27;;;563.20;2432.00;;;;;;5116363;28;20027;-75
2022/06/04 00:54:35;;;;;;;11.85;10.55;;;538.40;2406.40;;;;;;5114889;28;20493;-75
2022/06/04 00:57:12;;;;;;;13.70;11.55;;;538.40;2406.40;;;;;;5116156;28;20028;-74
2022/06/04 00:59:50;;;;;;;12.73;11.48;;;538.50;2406.40;;;;;;5115410;28;20067;-73
2022/06/04 01:02:18;;;;;;;12.25;10.93;;;538.40;2406.40;;;;;;5116826;28;20028;-74
2022/06/04 01:05:09;;;;;;;14.27;11.25;;;538.40;2406.40;;;;;;5115779;27;20040;-76
2022/06/04 01:07:52;;;;;;;11.93;10.68;;;538.10;2406.40;;;;;;5115021;28;20032;-74
2022/06/04 01:10:17;;;;;;;;;;;538.10;2406.40;;;;;;5115420;28;20114;-75
2022/06/04 01:13:07;;;;;;;18.42;13.15;;;538.10;2406.40;;;;;;5115029;28;20355;-74
2022/06/04 01:15:57;;;;;;;18.98;13.65;;;538.10;2406.40;;;;;;5119556;28;20049;-73
2022/06/04 01:18:45;;;;;;;13.32;11.93;;;538.10;2406.40;;;;;;5121933;28;20096;-73
2022/06/04 01:21:11;;;;;;;12.88;11.57;;;537.90;2406.40;;;;;;5115003;28;20023;-74
2022/06/04 01:24:34;;;;;;;12.07;10.88;;;537.70;2406.40;;;;;;5116182;28;20028;-74
2022/06/04 01:27:12;;;;;;;16.65;11.73;;;537.90;2406.40;;;;;;5093089;28;20039;-76
2022/06/04 01:29:55;;;;;;;13.18;11.77;;;537.70;2406.40;;;;;;5092952;28;20035;-74
2022/06/04 01:32:50;;;;;;;12.20;10.45;;;537.80;2406.40;;;;;;5100394;28;20036;-74
2022/06/04 01:35:24;;;;;;;13.45;11.50;;;538.00;2406.40;;;;;;5099300;28;20031;-73
2022/06/04 01:38:03;;;;;;;14.70;11.43;;;538.10;2406.40;;;;;;5114252;28;20027;-75
2022/06/04 01:41:06;;;;;;;15.43;11.75;;;538.00;2406.40;;;;;;5114445;28;20023;-75
2022/06/04 01:43:41;;;;;;;;;;;538.00;2406.40;;;;;;5116128;28;20486;-75
2022/06/04 01:46:20;;;;;;;14.60;11.57;;;537.90;2406.40;;;;;;5113910;28;19912;-74
2022/06/04 01:48:50;;;;;;;18.73;12.82;;;512.90;2380.80;;;;;;5115606;28;20023;-77
2022/06/04 01:51:26;;;;;;;12.68;11.18;;;537.60;2406.40;;;;;;5114299;28;20028;-75
2022/06/04 01:53:59;;;;;;;13.50;10.98;;;537.70;2406.40;;;;;;5113977;28;20035;-77
2022/06/04 01:56:34;;;;;;;12.02;10.82;;;537.70;2406.40;;;;;;5114127;28;20058;-75
2022/06/04 01:59:30;;;;;;;13.93;10.85;;;537.70;2406.40;;;;;;5113815;28;20043;-74
2022/06/04 02:02:00;;;;;;;11.98;10.73;;;537.60;2406.40;;;;;;5115090;28;20047;-74
2022/06/04 02:04:31;;;;;;;12.88;11.45;;;537.60;2406.40;;;;;;5113988;28;20104;-74
2022/06/04 02:09:53;;;;;;;15.52;10.55;;;537.70;2406.40;;;;;;5114958;28;20072;-76
2022/06/04 02:12:20;;;;;;;12.77;10.57;;;537.70;2406.40;;;;;;5114063;28;20114;-76
2022/06/04 02:14:46;;;;;;;13.20;11.27;;;537.80;2406.40;;;;;;5113478;28;20031;-75
2022/06/04 02:17:17;;;;;;;14.32;11.50;;;537.80;2406.40;;;;;;5113711;28;20053;-75
2022/06/04 02:19:45;;;;;;;14.07;10.60;;;537.80;2406.40;;;;;;5115048;28;20031;-75
2022/06/04 02:22:11;;;;;;;12.77;11.18;;;537.80;2406.40;;;;;;5113692;28;20047;-75
2022/06/04 02:24:38;;;;;;;14.77;11.27;;;537.70;2406.40;;;;;;5113705;28;20047;-75
2022/06/04 02:27:06;;;;;;;12.95;11.10;;;512.90;2380.80;;;;;;5114561;28;20114;-75
2022/06/04 02:29:33;;;;;;;12.85;11.43;;;512.80;2380.80;;;;;;5113428;28;20023;-74
2022/06/04 02:32:24;;;;;;;14.85;11.63;;;512.90;2380.80;;;;;;5114761;28;20015;-76
2022/06/04 02:35:01;;;;;;;15.10;11.85;;;512.90;2380.80;;;;;;5114754;28;20023;-75
2022/06/04 02:37:50;;;;;;;14.63;12.40;;;512.90;2380.80;;;;;;5114398;28;20028;-74
2022/06/04 02:40:22;;;;;;;15.48;12.50;;;512.80;2380.80;;;;;;5114682;28;20026;-76
2022/06/04 02:42:50;;;;;;;13.30;11.88;;;512.80;2380.80;;;;;;5113178;28;20035;-75
2022/06/04 02:45:27;;;;;;;14.57;12.30;;;512.80;2380.80;;;;;;5114856;28;20027;-75
2022/06/04 02:48:10;;;;;;;14.63;12.00;;;512.70;2380.80;;;;;;5113032;28;20506;-76
2022/06/04 02:50:39;;;;;;;13.70;12.00;;;512.70;2380.80;;;;;;5113272;28;20039;-74
2022/06/04 02:53:06;;;;;;;14.40;12.55;;;512.80;2380.80;;;;;;5113176;28;20024;-75
2022/06/04 02:55:38;;;;;;;13.32;11.75;;;512.80;2380.80;;;;;;5112755;28;20036;-76
2022/06/04 02:58:09;;;;;;;;;;;537.60;2406.40;;;;;;5114576;28;20020;-74
2022/06/04 03:00:36;;;;;;;18.30;12.27;;;537.60;2406.40;;;;;;5113024;28;19904;-75
2022/06/04 03:03:02;;;;;;;14.25;12.38;;;537.60;2406.40;;;;;;5112656;28;20023;-77
2022/06/04 03:05:29;;;;;;;18.52;13.05;;;512.90;2380.80;;;;;;5114007;28;20040;-76
2022/06/04 03:08:02;;;;;;;14.00;12.02;;;512.90;2380.80;;;;;;5112928;28;20031;-76
2022/06/04 03:10:31;;;;;;;14.50;11.55;;;512.80;2380.80;;;;;;5113907;28;20028;-75
2022/06/04 03:12:57;;;;;;;16.52;11.88;;;512.80;2380.80;;;;;;5114446;28;20102;-74
2022/06/04 03:15:23;;;;;;;13.88;11.63;;;512.80;2380.80;;;;;;5112809;28;20062;-74
2022/06/04 03:17:49;;;;;;;15.48;13.15;;;512.90;2380.80;;;;;;5113866;28;20032;-75
2022/06/04 03:20:20;;;;;;;13.48;12.18;;;512.70;2380.80;;;;;;5112856;28;20024;-75
2022/06/04 03:22:46;;;;;;;13.27;11.65;;;512.40;2380.80;;;;;;5112643;28;20030;-74
2022/06/04 03:25:12;;;;;;;15.02;12.48;;;512.50;2380.80;;;;;;5112870;28;20122;-76
2022/06/04 03:27:38;;;;;;;13.05;11.75;;;512.40;2380.80;;;;;;5112654;28;20032;-75
2022/06/04 03:30:05;;;;;;;16.02;12.55;;;512.40;2380.80;;;;;;5112766;28;20031;-76
2022/06/04 03:32:31;;;;;;;15.20;11.80;;;512.30;2380.80;;;;;;5112616;28;20020;-75
2022/06/04 03:34:57;;;;;;;16.30;12.50;;;512.40;2380.80;;;;;;5112724;28;20077;-75
2022/06/04 03:37:23;;;;;;;19.23;13.23;;;512.50;2380.80;;;;;;5112436;28;20038;-75
2022/06/04 03:39:49;;;;;;;18.10;13.15;;;512.50;2380.80;;;;;;5112673;28;20122;-75
2022/06/04 03:42:15;;;;;;;17.13;13.82;;;512.50;2380.80;;;;;;5112704;28;20020;-75
2022/06/04 03:44:46;;;;;;;16.17;12.70;;;512.40;2380.80;;;;;;5112338;28;20072;-75
2022/06/04 03:47:12;;;;;;;19.83;13.57;;;512.40;2380.80;;;;;;5112635;28;20035;-76
2022/06/04 03:49:38;;;;;;;21.38;12.95;;;512.40;2380.80;;;;;;5112674;28;20035;-76
2022/06/04 03:52:04;;;;;;;16.95;12.77;;;512.40;2380.80;;;;;;5112235;28;20024;-75
2022/06/04 03:59:58;;;;;;;15.52;13.35;;;512.70;2380.80;;;;;;5113268;28;20072;-74
2022/06/04 04:02:24;;;;;;;16.40;12.85;;;512.40;2380.80;;;;;;5112410;28;20028;-74
2022/06/04 04:04:50;;;;;;;16.20;14.07;;;512.50;2380.80;;;;;;5111811;28;20475;-76
2022/06/04 04:07:16;;;;;;;17.27;13.07;;;512.50;2380.80;;;;;;5112473;28;20039;-73
2022/06/04 04:09:42;;;;;;;23.70;13.38;;;512.70;2380.80;;;;;;5112457;28;20031;-76
2022/06/04 04:12:08;;;;;;;15.60;13.55;;;512.70;2380.80;;;;;;5112095;28;20467;-75
2022/06/04 04:14:34;;;;;;;19.10;15.27;;;512.70;2380.80;;;;;;5112302;28;20118;-73
2022/06/04 04:17:00;;;;;;;17.77;13.40;;;512.80;2380.80;;;;;;5113285;28;20031;-76
2022/06/04 04:19:29;;;;;;;17.02;12.23;;;512.70;2380.80;;;;;;5111623;28;20031;-74
2022/06/04 04:21:55;;;;;;;16.90;12.85;;;512.90;2380.80;;;;;;5113746;28;20020;-75
2022/06/04 04:24:21;;;;;;;16.20;12.00;;;512.90;2380.80;;;;;;5113739;28;20024;-74
2022/06/04 04:26:47;;;;;;;16.48;12.48;;;537.70;2406.40;;;;;;5111884;28;20034;-74
2022/06/04 04:29:13;;;;;;;17.65;12.02;;;537.80;2406.40;;;;;;5112031;28;20034;-76
2022/06/04 04:31:38;;;;;;;15.07;12.65;;;537.90;2406.40;;;;;;5115836;28;20024;-76
2022/06/04 04:34:05;;;;;;;24.42;13.48;;;537.80;2406.40;;;;;;5116443;28;20024;-75
2022/06/04 04:36:31;;;;;;;15.68;13.50;;;537.70;2406.40;;;;;;5115714;28;20038;-75
2022/06/04 04:38:57;;;;;;;18.30;12.50;;;537.80;2406.40;;;;;;5115657;28;20040;-75
2022/06/04 04:41:23;;;;;;;17.80;12.55;;;537.80;2406.40;;;;;;5115337;28;20072;-76
2022/06/04 04:43:50;;;;;;;18.98;13.05;;;537.80;2406.40;;;;;;5115527;28;20020;-75
2022/06/04 04:46:17;;;;;;;22.17;14.50;;;538.00;2406.40;;;;;;5115694;28;20031;-77
2022/06/04 04:48:45;;;;;;;15.63;13.23;;;537.80;2406.40;;;;;;5115167;28;20066;-74
2022/06/04 04:51:19;;;;;;;14.25;12.60;;;538.00;2406.40;;;;;;5116430;28;20083;-75
2022/06/04 04:53:46;;;;;;;14.82;12.02;;;538.00;2406.40;;;;;;5115101;28;20031;-74
2022/06/04 04:56:17;;;;;;;17.77;12.88;;;538.00;2406.40;;;;;;5115320;28;20119;-75
2022/06/04 04:58:43;;;;;;;13.48;12.02;;;538.20;2406.40;;;;;;5116511;28;20080;-75
2022/06/04 05:01:25;;;;;;;17.40;12.18;;;537.90;2406.40;;;;;;5114880;28;20164;-74
2022/06/04 05:03:51;;;;;;;16.67;11.18;;;538.00;2406.40;;;;;;5115197;28;20375;-74
2022/06/04 05:06:18;;;;;;;14.63;12.63;;;538.20;2406.40;;;;;;5115049;28;20048;-76
2022/06/04 05:08:45;;;;;;;17.58;12.68;;;538.00;2406.40;;;;;;5114646;28;20035;-75
2022/06/04 05:11:14;;;;;;;19.42;14.10;;;537.80;2406.40;;;;;;5115088;27;20110;-75
2022/06/04 05:13:40;;;;;;;18.42;13.38;;;538.00;2406.40;;;;;;5116208;28;20039;-76
2022/06/04 05:16:06;;;;;;;21.45;13.25;;;538.20;2406.40;;;;;;5114692;28;20031;-75
2022/06/04 05:18:33;;;;;;;15.18;12.75;;;538.10;2406.40;;;;;;5115077;28;20073;-75
2022/06/04 05:21:34;;;;;;;17.52;13.25;;;538.00;2406.40;;;;;;5115965;28;20463;-74
2022/06/04 05:24:00;;;;;;;19.40;13.85;;;538.00;2406.40;;;;;;5110394;28;20443;-76
2022/06/04 05:26:26;;;;;;;16.50;12.88;;;538.30;2406.40;;;;;;5114840;28;20142;-74
2022/06/04 05:28:53;;;;;;;18.90;13.55;;;538.40;2406.40;;;;;;5115271;28;20047;-73
2022/06/04 05:31:19;;;;;;;16.58;13.05;;;538.50;2406.40;;;;;;5115745;28;20364;-76
2022/06/04 05:33:46;;;;;;;16.50;14.27;;;538.50;2406.40;;;;;;5116010;28;20024;-73
2022/06/04 05:36:12;;;;;;;17.08;13.68;;;538.40;2406.40;;;;;;5114450;28;20030;-74
2022/06/04 05:38:39;;;;;;;16.52;13.65;;;563.20;2432.00;;;;;;5114711;28;20031;-74
2022/06/04 05:41:09;;;;;;;17.23;12.93;;;563.30;2432.00;;;;;;5114416;28;20035;-75
2022/06/04 05:43:35;;;;;;;18.30;12.68;;;563.60;2432.00;;;;;;5114268;28;20059;-73
2022/06/04 05:46:04;;;;;;;14.48;12.07;;;563.80;2432.00;;;;;;5114394;28;20467;-74
2022/06/04 05:48:30;;;;;;;17.67;13.95;;;564.00;2432.00;;;;;;5114376;27;20038;-76
2022/06/04 05:50:58;;;;;;;16.60;14.68;;;564.10;2432.00;;;;;;5115554;28;20020;-74
2022/06/04 05:53:24;;;;;;;17.65;12.25;;;588.80;2432.00;;;;;;5114285;28;20531;-74
2022/06/04 05:55:51;;;;;;;16.42;12.57;;;589.00;2432.00;;;;;;5114264;28;20020;-74
2022/06/04 05:58:17;;;;;;;16.55;12.77;;;589.00;2432.00;;;;;;5114016;27;20023;-76
2022/06/04 06:00:43;;;;;;;13.15;11.82;;;589.00;2432.00;;;;;;5115441;28;20545;-75
2022/06/04 06:03:09;;;;;;;12.65;11.32;;;589.00;2432.00;;;;;;5115489;28;20061;-74
2022/06/04 06:05:40;;;;;;;17.20;10.93;;;589.00;2432.00;;;;;;5113455;28;20476;-73
2022/06/04 06:08:06;;;;;;;13.13;11.30;;;589.10;2432.00;;;;;;5114022;28;20038;-73
2022/06/04 06:10:32;;;;;;;12.73;10.82;;;589.10;2432.00;;;;;;5113988;28;20142;-73
2022/06/04 06:12:58;;;;;;;12.70;11.43;;;589.20;2432.00;;;;;;5115008;28;20080;-74
2022/06/04 06:15:24;;;;;;;13.98;11.65;;;589.20;2432.00;;;;;;5113961;28;20027;-76
2022/06/04 06:17:49;;;;;;;14.38;12.13;;;589.30;2432.00;;;;;;5114422;28;20522;-75
2022/06/04 06:20:17;;;;;;;19.25;15.18;;;589.30;2432.00;;;;;;5117659;28;20030;-74
2022/06/04 06:22:43;;;;;;;16.30;13.48;;;589.10;2432.00;;;;;;5115683;28;20035;-75
2022/06/04 06:25:09;;;;;;;18.92;13.35;;;589.20;2432.00;;;;;;5114603;28;20027;-75
2022/06/04 06:27:35;;;;;;;15.90;13.27;;;589.20;2432.00;;;;;;5113559;28;20030;-75
2022/06/04 06:30:00;;;;;;;15.57;13.98;;;589.10;2432.00;;;;;;5113768;28;20114;-75
2022/06/04 06:32:26;;;;;;;16.88;14.20;;;589.10;2432.00;;;;;;5113233;28;20407;-75
2022/06/04 06:34:52;;;;;;;21.92;12.73;;;589.10;2432.00;;;;;;5113535;28;20034;-75
2022/06/04 06:37:18;;;;;;;16.08;12.20;;;589.00;2432.00;;;;;;5114524;28;20463;-76
2022/06/04 06:39:44;;;;;;;12.90;11.70;;;589.00;2432.00;;;;;;5114210;28;20030;-75
2022/06/04 06:42:10;;;;;;;13.23;11.30;;;589.00;2432.00;;;;;;5114395;28;20031;-76
2022/06/04 06:44:36;;;;;;;15.68;11.85;;;589.10;2432.00;;;;;;5114938;28;20030;-75
2022/06/04 06:47:01;;;;;;;14.18;11.65;;;589.10;2432.00;;;;;;5114313;28;20107;-76
2022/06/04 06:49:29;;;;;;;12.98;11.45;;;589.30;2432.00;;;;;;5113028;28;20028;-75
2022/06/04 06:52:01;;;;;;;15.93;12.27;;;589.20;2432.00;;;;;;5114539;28;20516;-76
2022/06/04 06:54:31;;;;;;;13.57;10.30;;;589.20;2432.00;;;;;;5112999;28;20114;-76
2022/06/04 06:56:57;;;;;;;12.80;11.45;;;589.20;2432.00;;;;;;5113327;28;20468;-75
2022/06/04 06:59:27;;;;;;;17.60;12.30;;;589.00;2432.00;;;;;;5113210;28;20114;-76
2022/06/04 07:01:54;;;;;;;14.50;11.35;;;589.10;2432.00;;;;;;5113042;28;20471;-76
2022/06/04 07:04:23;;;;;;;14.68;11.57;;;589.00;2432.00;;;;;;5112655;28;20069;-75
2022/06/04 07:06:52;;;;;;;18.08;13.27;;;589.00;2432.00;;;;;;5112593;28;20092;-75
2022/06/04 07:09:24;;;;;;;17.88;13.15;;;588.80;2432.00;;;;;;5113049;28;20385;-76
2022/06/04 07:11:51;;;;;;;15.63;13.25;;;588.80;2432.00;;;;;;5114737;28;20019;-76
2022/06/04 07:14:18;;;;;;;15.55;12.75;;;588.80;2432.00;;;;;;5113933;28;20027;-79
2022/06/04 07:16:44;;;;;;;14.20;12.15;;;588.80;2432.00;;;;;;5113221;28;20126;-78
2022/06/04 07:19:11;;;;;;;14.02;12.32;;;588.80;2432.00;;;;;;5113360;28;20511;-77
2022/06/04 07:21:38;;;;;;;13.55;11.68;;;588.90;2432.00;;;;;;5112791;28;20062;-76
2022/06/04 07:24:05;;;;;;;15.77;12.65;;;589.10;2432.00;;;;;;5113276;28;20030;-76
2022/06/04 07:26:30;;;;;;;17.73;13.25;;;588.80;2432.00;;;;;;5114619;28;20028;-74
2022/06/04 07:28:56;;;;;;;16.85;13.30;;;589.10;2432.00;;;;;;5113459;28;20027;-75
2022/06/04 07:31:23;;;;;;;16.65;12.60;;;589.30;2432.00;;;;;;5112720;28;20395;-75
2022/06/04 07:33:52;;;;;;;22.73;14.00;;;589.40;2432.00;;;;;;5112980;28;20024;-76
2022/06/04 07:36:28;;;;;;;15.18;13.05;;;589.50;2432.00;;;;;;5117160;28;20548;-74
2022/06/04 07:38:54;;;;;;;17.20;13.40;;;589.50;2432.00;;;;;;5123404;28;20024;-75
2022/06/04 07:41:27;;;;;;;14.57;13.05;;;589.50;2432.00;;;;;;5121416;28;20111;-75
2022/06/04 07:43:54;;;;;;;16.75;13.73;;;589.60;2432.00;;;;;;5120541;28;20028;-75
2022/06/04 07:46:21;;;;;;;14.80;13.30;;;614.50;2432.00;;;;;;5114201;28;20035;-75
2022/06/04 07:48:47;;;;;;;17.38;13.30;;;614.60;2432.00;;;;;;5112525;28;20032;-76
2022/06/04 07:51:15;;;;;;;14.48;12.95;;;615.00;2432.00;;;;;;5112491;28;20031;-75
2022/06/04 07:53:41;;;;;;;18.92;14.10;;;615.30;2432.00;;;;;;5112193;28;20032;-77
2022/06/04 07:56:15;;;;;;;14.32;12.15;;;640.20;2432.00;;;;;;5112685;28;20486;-76
2022/06/04 07:58:42;;;;;;;14.18;11.85;;;640.40;2432.00;;;;;;5112575;28;20463;-75
2022/06/04 08:01:11;;;;;;;14.07;11.80;;;640.60;2432.00;;;;;;5113174;28;20028;-75
2022/06/04 08:03:37;;;;;;;16.60;13.05;;;640.90;2432.00;;;;;;5113765;28;20049;-76
2022/06/04 08:06:04;;;;;;;15.90;14.25;;;640.90;2432.00;;;;;;5115349;28;20051;-76
2022/06/04 08:08:32;;;;;;;16.80;15.10;;;640.70;2432.00;;;;;;5117270;27;20024;-74
2022/06/04 08:10:59;;;;;;;14.20;12.70;;;640.50;2432.00;;;;;;5116394;28;20047;-75
2022/06/04 08:13:25;;;;;;;14.80;11.77;;;640.70;2432.00;;;;;;5116032;28;20032;-75
2022/06/04 08:15:54;;;;;;;13.82;11.13;;;640.70;2432.00;;;;;;5116162;28;20404;-74
2022/06/04 08:18:19;;;;;;;19.05;11.73;;;665.80;2432.00;;;;;;5116120;28;20027;-75
2022/06/04 08:20:45;;;;;;;14.32;11.95;;;665.80;2432.00;;;;;;5115785;28;20028;-76
2022/06/04 08:23:13;;;;;;;15.07;12.10;;;665.60;2432.00;;;;;;5115982;28;20034;-75
2022/06/04 08:25:50;;;;;;;15.23;13.32;;;640.90;2432.00;;;;;;5115941;28;20023;-74
2022/06/04 08:28:16;;;;;;;13.30;11.95;;;665.80;2432.00;;;;;;5116968;28;20102;-77
2022/06/04 08:30:43;;;;;;;13.77;12.38;;;666.30;2432.00;;;;;;5115907;28;20032;-75
2022/06/04 08:33:09;;;;;;;15.07;11.93;;;666.30;2432.00;;;;;;5117071;28;20024;-76
2022/06/04 08:35:35;;;;;;;12.63;10.32;;;691.20;2432.00;;;;;;5115477;28;20026;-74
2022/06/04 08:38:01;;;;;;;11.77;10.57;;;691.40;2432.00;;;;;;5117062;28;20023;-76
2022/06/04 08:40:35;;;;;;;14.88;10.27;;;691.80;2432.00;;;;;;5116686;28;20028;-75
2022/06/04 08:43:15;;;;;;;14.95;10.88;;;691.70;2432.00;;;;;;5116903;28;20024;-74
2022/06/04 08:45:41;;;;;;;12.48;10.45;;;691.20;2432.00;;;;;;5115778;28;20376;-75
2022/06/04 08:48:32;;;;;;;11.80;10.65;;;666.50;2432.00;;;;;;5115491;28;20435;-74
2022/06/04 08:50:58;;;;;;;12.10;10.73;;;666.50;2432.00;;;;;;5114861;28;20031;-73
2022/06/04 08:53:29;;;;;;;11.35;10.20;;;691.40;2432.00;;;;;;5115816;28;20417;-73
2022/06/04 08:59:36;;;;;;;13.85;10.73;;;692.00;2432.00;;;;;;5115991;28;20386;-73
2022/06/04 09:02:11;;;;;;;11.40;10.27;;;717.10;2432.00;;;;;;5114470;28;20036;-75
2022/06/04 09:05:15;;;;;;;13.60;10.60;;;717.50;2432.00;;;;;;5116309;28;20059;-72
2022/06/04 09:07:47;;;;;;;12.57;10.27;;;716.90;2432.00;;;;;;5115119;28;20063;-75
2022/06/04 09:10:16;;;;;;;;;;;717.50;2432.00;;;;;;5115274;28;20030;-74
2022/06/04 09:12:59;;;;;;;14.00;9.82;;;742.50;2432.00;;;;;;5115018;28;19998;-74
2022/06/04 09:15:49;;;;;;;12.57;10.13;;;742.70;2432.00;;;;;;5115921;28;20103;-74
2022/06/04 09:18:20;;;;;;;14.45;9.38;;;742.80;2432.00;;;;;;5116005;28;20023;-73
2022/06/04 09:20:49;;;;;;;13.57;9.47;;;743.10;2432.00;;;;;;5116479;28;20030;-74
2022/06/04 09:23:22;;;;;;;14.32;9.43;;;743.30;2432.00;;;;;;5115921;28;20028;-73
2022/06/04 09:26:33;;;;;;;16.20;9.68;;;768.10;2432.00;;;;;;5115928;28;20049;-73
2022/06/04 09:29:04;;;;;;;14.15;9.15;;;743.30;2432.00;;;;;;5111133;28;20118;-74
2022/06/04 09:32:20;;;;;;;15.75;9.48;;;768.40;2432.00;;;;;;5114099;28;20106;-74
2022/06/04 09:34:49;;;;;;;10.60;9.52;;;768.60;2432.00;;;;;;5080493;28;20394;-74
2022/06/04 09:37:15;;;;;;;15.50;11.10;;;768.90;2406.40;;;;;;5115167;28;20434;-73
2022/06/04 09:39:45;;;;;;;11.05;8.40;;;793.80;2406.40;;;;;;5114335;28;20134;-74
2022/06/04 09:42:14;;;;;;;16.67;9.50;;;794.20;2355.20;;;;;;5114449;28;20114;-73
2022/06/04 09:45:00;;;;;;;25.05;19.42;;;793.70;2355.20;;;;;;5114082;28;20024;-74
2022/06/04 09:47:42;;;;;;;13.35;10.13;;;768.90;2329.60;;;;;;5114310;28;20043;-74
2022/06/04 09:50:34;;;;;;;12.25;9.02;;;768.90;2355.20;;;;;;5115591;28;20031;-74
2022/06/04 09:53:27;;;;;;;15.43;8.95;;;768.80;2355.20;;;;;;5114998;28;20047;-75
2022/06/04 09:56:26;;;;;;;10.65;8.80;;;768.40;2355.20;;;;;;5112587;28;20032;-75
2022/06/04 09:58:52;;;;;;;10.23;8.38;;;768.40;2380.80;;;;;;5112922;28;20087;-74
2022/06/04 10:01:18;;;;;;;17.45;9.13;;;768.30;2355.20;;;;;;5113421;28;20082;-73
2022/06/04 10:03:56;;;;;;;14.55;8.98;;;768.90;2304.00;;;;;;5114856;28;20039;-73
2022/06/04 10:06:27;;;;;;;12.70;8.68;;;793.60;2329.60;;;;;;5113555;28;20054;-73
2022/06/04 10:11:49;;;;;;;11.50;8.07;;;794.30;2176.00;;;;;;5112912;28;20073;-74
2022/06/04 10:14:15;;;;;;;10.63;7.32;;;819.30;2176.00;;;;;;5110919;28;20020;-74
2022/06/04 10:16:44;;;;;;;9.27;7.70;;;819.60;2124.80;;;;;;5114246;27;20114;-73
2022/06/04 10:19:15;;;;;;;9.32;7.43;;;819.70;2048.00;;;;;;5110533;28;20047;-73
2022/06/04 10:21:43;;;;;;;15.23;7.57;;;819.60;2048.00;;;;;;5114225;28;20051;-74
2022/06/04 10:24:26;;;;;;;14.00;8.13;;;819.60;2048.00;;;;;;5113938;28;20024;-73
2022/06/04 10:27:13;;;;;;;10.68;7.70;;;820.00;2022.40;;;;;;5112038;28;20032;-74
2022/06/04 10:30:16;;;;;;;8.63;7.45;;;820.10;2022.40;;;;;;5113313;28;20463;-74
2022/06/04 10:32:56;;;;;;;8.20;7.38;;;820.10;1996.80;;;;;;5113336;27;20166;-73
2022/06/04 10:35:56;;;;;;;10.20;7.55;;;819.90;2022.40;;;;;;5122045;27;20031;-73
2022/06/04 10:38:44;;;;;;;13.65;8.73;;;845.00;1971.20;;;;;;5130522;27;20038;-74
2022/06/04 10:41:49;;;;;;;10.63;8.10;;;845.00;1996.80;;;;;;5128651;27;20034;-74
2022/06/04 10:44:38;;;;;;;12.43;7.95;;;845.20;1945.60;;;;;;5113039;28;20011;-73
2022/06/04 10:47:22;;;;;;;9.43;7.07;;;845.20;1971.20;;;;;;5107313;28;20191;-73
2022/06/04 10:50:05;;;;;;;11.57;9.30;;;845.10;1945.60;;;;;;5111726;28;20016;-73
2022/06/04 10:52:55;;;;;;;12.60;10.60;;;845.50;1945.60;;;;;;5113268;28;20592;-73
2022/06/04 10:55:36;;;;;;;10.75;8.30;;;870.40;1920.00;;;;;;5112840;28;20024;-74
2022/06/04 10:58:20;;;;;;;11.48;8.82;;;870.80;1894.40;;;;;;5113193;28;20131;-73
2022/06/04 11:00:57;;;;;;;11.90;10.40;;;871.10;1843.20;;;;;;5113054;28;20028;-73
2022/06/04 11:03:45;;;;;;;11.25;8.20;;;871.30;1843.20;;;;;;5113305;28;20028;-73
2022/06/04 11:06:28;;;;;;;8.43;6.88;;;871.10;1843.20;;;;;;5114104;28;20387;-73
2022/06/04 11:09:18;;;;;;;9.57;7.80;;;870.70;1868.80;;;;;;5113608;28;20032;-73
2022/06/04 11:12:19;;;;;;;10.95;6.82;;;870.90;1868.80;;;;;;5114066;28;20455;-73
2022/06/04 11:14:49;;;;;;;12.00;7.25;;;870.40;1894.40;;;;;;5108665;28;20501;-73
2022/06/04 11:17:28;;;;;;;10.60;7.18;;;845.30;1894.40;;;;;;5116913;27;20024;-73
2022/06/04 11:20:05;;;;;;;10.20;7.45;;;845.00;1920.00;;;;;;5114380;28;20483;-73
2022/06/04 11:22:31;;;;;;;9.32;7.55;;;845.00;1945.60;;;;;;5112317;28;20032;-74
2022/06/04 11:25:03;;;;;;;8.95;7.78;;;845.30;1945.60;;;;;;5112544;28;20520;-74
2022/06/04 11:27:45;;;;;;;13.07;8.07;;;870.40;1894.40;;;;;;5113548;28;20489;-75
2022/06/04 11:30:21;;;;;;;10.13;7.45;;;870.70;1868.80;;;;;;5112409;28;20024;-73
2022/06/04 11:33:13;;;;;;;15.93;11.60;;;870.90;1868.80;;;;;;5114410;28;20020;-73
2022/06/04 11:35:46;;;;;;;11.45;8.38;;;871.00;1894.40;;;;;;5114614;28;20464;-75
2022/06/04 11:38:33;;;;;;;11.20;10.07;;;871.10;1868.80;;;;;;5114271;28;20050;-75
2022/06/04 11:41:25;;;;;;;9.27;8.25;;;896.10;1868.80;;;;;;5117315;28;20020;-75
2022/06/04 11:44:10;;;;;;;11.50;8.93;;;871.30;1868.80;;;;;;5112369;28;20031;-75
2022/06/04 11:46:57;;;;;;;12.73;8.63;;;871.30;1894.40;;;;;;5118266;28;20093;-75
2022/06/04 11:50:23;;;;;;;9.27;8.38;;;896.20;1843.20;;;;;;5117001;28;20463;-75
2022/06/04 11:52:59;;;;;;;11.27;8.10;;;896.20;1868.80;;;;;;5108773;28;20074;-75
2022/06/04 11:55:48;;;;;;;9.13;7.90;;;896.30;1843.20;;;;;;5116513;28;20027;-75
2022/06/04 11:58:22;;;;;;;13.40;10.68;;;896.20;1843.20;;;;;;5116290;28;20468;-75
2022/06/04 12:00:48;;;;;;;16.10;13.23;;;896.40;1868.80;;;;;;5116549;28;20030;-75
2022/06/04 12:03:29;;;;;;;11.65;8.60;;;896.60;1843.20;;;;;;5117665;28;20076;-75
2022/06/04 12:06:41;;;;;;;12.52;9.75;;;896.40;1843.20;;;;;;5116873;28;20067;-75
2022/06/04 12:09:27;;;;;;;13.18;9.15;;;896.50;1843.20;;;;;;5077543;28;20031;-76
2022/06/04 12:12:12;;;;;;;11.48;9.43;;;896.40;1843.20;;;;;;5077347;28;20043;-75
2022/06/04 12:14:55;;;;;;;10.93;9.60;;;896.90;1843.20;;;;;;5107132;28;20032;-75
2022/06/04 12:17:44;;;;;;;11.55;10.35;;;896.90;1817.60;;;;;;5116139;28;20027;-75
2022/06/04 12:26:23;;;;;;;12.63;9.10;;;896.00;1894.40;;;;;;5115798;28;20399;-76
2022/06/04 12:28:49;;;;;;;;;;;896.10;1868.80;;;;;;5118859;28;20113;-75
2022/06/04 12:31:36;;;;;;;10.25;7.55;;;896.30;1868.80;;;;;;5117634;28;19904;-75
2022/06/04 12:34:23;;;;;;;8.93;8.02;;;871.30;1894.40;;;;;;5115767;28;20027;-75
2022/06/04 12:36:52;;;;;;;10.02;7.90;;;871.10;1920.00;;;;;;5116870;28;20080;-75
2022/06/04 12:39:28;;;;;;;8.73;7.53;;;896.00;1894.40;;;;;;5115204;28;20028;-74
2022/06/04 12:42:02;;;;;;;15.68;8.38;;;896.50;1868.80;;;;;;5117227;27;20027;-74
2022/06/04 12:44:35;;;;;;;10.05;7.22;;;896.80;1843.20;;;;;;5115648;28;20467;-75
2022/06/04 12:47:21;;;;;;;8.57;7.68;;;896.80;1843.20;;;;;;5116500;28;20136;-74
2022/06/04 12:49:57;;;;;;;9.55;7.55;;;896.90;1843.20;;;;;;5116462;28;20111;-75
2022/06/04 12:52:35;;;;;;;10.68;7.78;;;921.80;1843.20;;;;;;5115359;28;20027;-75
2022/06/04 12:55:22;;;;;;;10.00;7.55;;;921.90;1868.80;;;;;;5114951;28;20034;-74
2022/06/04 12:57:51;;;;;;;9.63;7.35;;;921.90;1843.20;;;;;;5115453;28;20020;-75
2022/06/04 13:00:18;;;;;;;10.43;7.63;;;921.70;1843.20;;;;;;5116020;28;20023;-74